createdAt,value
2018-07-31T00:01:37.107Z,24.80
2018-07-31T00:04:04.824Z,24.50
2018-07-31T00:06:31.709Z,24.50
2018-07-31T00:08:59.383Z,24.50
2018-07-31T00:11:26.975Z,24.60
2018-07-31T00:13:53.928Z,24.50
2018-07-31T00:16:20.823Z,24.60
2018-07-31T00:18:48.552Z,24.60
2018-07-31T00:21:15.474Z,24.60
2018-07-31T00:23:42.448Z,24.70
2018-07-31T00:26:09.351Z,24.70
2018-07-31T00:28:36.372Z,24.80
2018-07-31T00:31:03.286Z,24.70
2018-07-31T00:33:30.205Z,24.60
2018-07-31T00:35:57.096Z,24.60
2018-07-31T00:38:24.037Z,24.40
2018-07-31T00:40:50.980Z,24.20
2018-07-31T00:43:17.964Z,24.10
2018-07-31T00:45:44.835Z,24.00
2018-07-31T00:48:11.780Z,23.90
2018-07-31T00:50:38.647Z,23.90
2018-07-31T00:53:05.628Z,23.80
2018-07-31T00:55:32.552Z,23.90
2018-07-31T00:57:59.461Z,23.90
2018-07-31T01:00:26.340Z,23.90
2018-07-31T01:02:53.207Z,23.90
2018-07-31T01:05:20.118Z,23.90
2018-07-31T01:07:47.035Z,24.00
2018-07-31T01:10:13.949Z,24.00
2018-07-31T01:12:41.552Z,24.00
2018-07-31T01:15:08.482Z,24.00
2018-07-31T01:17:35.426Z,24.00
2018-07-31T01:20:02.390Z,24.00
2018-07-31T01:22:29.319Z,23.90
2018-07-31T01:24:56.292Z,23.90
2018-07-31T01:27:23.163Z,23.90
2018-07-31T01:29:50.140Z,23.70
2018-07-31T01:32:17.056Z,23.70
2018-07-31T01:34:44.740Z,23.70
2018-07-31T01:37:11.628Z,23.70
2018-07-31T01:39:38.560Z,23.80
2018-07-31T01:42:05.479Z,23.80
2018-07-31T01:44:32.484Z,23.60
2018-07-31T01:46:59.358Z,23.50
2018-07-31T01:49:27.009Z,23.20
2018-07-31T01:51:53.901Z,23.20
2018-07-31T01:54:20.863Z,22.90
2018-07-31T01:56:47.780Z,22.80
2018-07-31T01:59:14.746Z,22.70
2018-07-31T02:01:41.629Z,22.60
2018-07-31T02:04:08.557Z,22.70
2018-07-31T02:06:35.444Z,22.60
2018-07-31T02:09:02.510Z,22.70
2018-07-31T02:11:29.371Z,22.80
2018-07-31T02:13:56.382Z,22.80
2018-07-31T02:16:23.262Z,22.90
2018-07-31T02:18:50.202Z,23.00
2018-07-31T02:21:17.072Z,23.00
2018-07-31T02:23:43.996Z,23.00
2018-07-31T02:26:10.868Z,23.00
2018-07-31T02:28:37.804Z,23.00
2018-07-31T02:31:04.770Z,23.00
2018-07-31T02:33:31.637Z,22.90
2018-07-31T02:35:59.372Z,22.80
2018-07-31T02:38:26.252Z,22.80
2018-07-31T02:40:53.264Z,22.80
2018-07-31T02:43:20.121Z,22.80
2018-07-31T02:45:47.028Z,22.80
2018-07-31T02:48:13.934Z,22.80
2018-07-31T02:50:40.873Z,22.80
2018-07-31T02:53:07.784Z,22.80
2018-07-31T02:55:34.740Z,22.80
2018-07-31T02:58:01.693Z,22.80
2018-07-31T03:00:28.626Z,22.60
2018-07-31T03:02:55.495Z,22.70
2018-07-31T03:05:22.485Z,22.70
2018-07-31T03:07:50.005Z,22.70
2018-07-31T03:10:16.927Z,22.70
2018-07-31T03:12:43.801Z,22.60
2018-07-31T03:15:11.478Z,22.50
2018-07-31T03:17:38.432Z,22.50
2018-07-31T03:20:05.420Z,22.40
2018-07-31T03:22:32.279Z,22.50
2018-07-31T03:24:59.975Z,22.50
2018-07-31T03:27:26.864Z,22.50
2018-07-31T03:29:54.357Z,22.60
2018-07-31T03:32:21.274Z,22.60
2018-07-31T03:34:48.197Z,22.60
2018-07-31T03:37:15.141Z,22.60
2018-07-31T03:39:42.047Z,22.50
2018-07-31T03:42:09.710Z,22.50
2018-07-31T03:44:37.383Z,22.50
2018-07-31T03:47:04.263Z,22.50
2018-07-31T03:49:31.187Z,22.50
2018-07-31T03:51:58.029Z,22.40
2018-07-31T03:54:24.939Z,22.40
2018-07-31T03:56:52.612Z,22.40
2018-07-31T03:59:19.493Z,22.40
2018-07-31T04:01:46.455Z,22.30
2018-07-31T04:04:13.336Z,22.40
2018-07-31T04:06:40.999Z,22.40
2018-07-31T04:09:08.684Z,22.40
2018-07-31T04:11:35.600Z,22.40
2018-07-31T04:14:02.551Z,22.30
2018-07-31T04:16:30.207Z,21.80
2018-07-31T04:18:57.102Z,21.80
2018-07-31T04:21:26.694Z,21.60
2018-07-31T04:23:56.334Z,21.60
2018-07-31T04:26:28.413Z,21.60
2018-07-31T04:29:04.145Z,21.50
2018-07-31T04:31:43.425Z,21.50
2018-07-31T04:34:18.261Z,21.40
2018-07-31T04:36:47.198Z,21.60
2018-07-31T04:39:17.688Z,21.60
2018-07-31T04:41:48.598Z,22.20
2018-07-31T04:44:22.674Z,22.20
2018-07-31T04:46:51.251Z,22.70
2018-07-31T04:49:20.717Z,23.00
2018-07-31T04:51:50.998Z,23.40
2018-07-31T04:54:20.492Z,23.80
2018-07-31T04:56:51.196Z,24.30
2018-07-31T04:59:26.992Z,26.60
2018-07-31T05:01:57.487Z,29.50
2018-07-31T05:04:24.508Z,31.40
2018-07-31T05:06:51.445Z,31.40
2018-07-31T05:09:19.359Z,33.60
2018-07-31T05:11:47.408Z,34.70
2018-07-31T05:14:15.005Z,36.30
2018-07-31T05:16:43.140Z,36.30
2018-07-31T05:19:10.230Z,36.70
2018-07-31T05:21:37.189Z,36.30
2018-07-31T05:24:04.380Z,33.70
2018-07-31T05:26:32.085Z,32.90
2018-07-31T05:28:59.786Z,33.00
2018-07-31T05:31:27.366Z,34.30
2018-07-31T05:33:55.071Z,34.30
2018-07-31T05:36:22.053Z,34.30
2018-07-31T05:38:48.996Z,34.20
2018-07-31T05:41:19.219Z,35.00
2018-07-31T05:43:47.774Z,34.40
2018-07-31T05:46:15.726Z,33.00
2018-07-31T05:48:43.106Z,32.10
2018-07-31T05:51:10.315Z,30.80
2018-07-31T05:53:37.932Z,29.50
2018-07-31T05:56:04.968Z,29.40
2018-07-31T05:58:32.573Z,28.90
2018-07-31T06:01:00.420Z,28.30
2018-07-31T06:03:29.055Z,28.30
2018-07-31T06:05:56.376Z,28.70
2018-07-31T06:08:23.225Z,30.70
2018-07-31T06:10:50.226Z,32.10
2018-07-31T06:13:17.877Z,32.80
2018-07-31T06:15:44.783Z,31.60
2018-07-31T06:18:12.284Z,30.80
2018-07-31T06:20:39.155Z,30.90
2018-07-31T06:23:07.317Z,29.80
2018-07-31T06:25:34.237Z,29.40
2018-07-31T06:28:01.260Z,28.90
2018-07-31T06:30:28.264Z,28.70
2018-07-31T06:32:56.754Z,28.50
2018-07-31T06:35:23.758Z,28.40
2018-07-31T06:37:52.654Z,28.30
2018-07-31T06:40:19.575Z,28.30
2018-07-31T06:42:47.299Z,29.40
2018-07-31T06:45:16.793Z,29.30
2018-07-31T06:47:43.966Z,29.10
2018-07-31T06:50:16.176Z,28.70
2018-07-31T06:52:44.168Z,28.60
2018-07-31T06:55:15.566Z,28.50
2018-07-31T06:57:52.291Z,28.40
2018-07-31T07:00:28.484Z,28.40
2018-07-31T07:03:01.223Z,28.40
2018-07-31T07:05:41.074Z,28.40
2018-07-31T07:08:16.071Z,28.40
2018-07-31T07:10:43.787Z,28.60
2018-07-31T07:13:25.543Z,28.60
2018-07-31T07:18:31.025Z,28.70
2018-07-31T07:26:27.861Z,28.90
2018-07-31T07:29:07.747Z,28.90
2018-07-31T07:31:52.409Z,29.00
2018-07-31T07:34:29.417Z,29.10
2018-07-31T07:39:51.339Z,29.00
2018-07-31T07:45:18.616Z,29.20
2018-07-31T07:47:58.130Z,29.30
2018-07-31T07:50:37.548Z,30.10
2018-07-31T07:53:18.059Z,30.40
2018-07-31T07:55:57.549Z,30.70
2018-07-31T07:58:38.024Z,32.20
2018-07-31T08:01:17.230Z,32.00
2018-07-31T08:04:02.610Z,31.30
2018-07-31T08:06:45.185Z,30.90
2018-07-31T08:12:12.045Z,31.00
2018-07-31T08:14:56.514Z,31.00
2018-07-31T08:17:38.427Z,31.30
2018-07-31T08:23:06.416Z,32.50
2018-07-31T08:28:28.265Z,35.00
2018-07-31T08:36:38.951Z,40.50
2018-07-31T08:39:24.904Z,41.30
2018-07-31T08:44:36.431Z,43.50
2018-07-31T08:47:09.666Z,43.90
2018-07-31T08:49:52.018Z,43.90
2018-07-31T08:52:31.072Z,44.40
2018-07-31T08:55:10.721Z,43.90
2018-07-31T08:57:48.033Z,42.60
2018-07-31T09:00:17.364Z,42.00
2018-07-31T09:02:57.100Z,41.50
2018-07-31T09:05:34.468Z,41.40
2018-07-31T09:08:12.956Z,41.60
2018-07-31T09:10:53.764Z,42.20
2018-07-31T09:13:31.865Z,42.60
2018-07-31T09:16:08.155Z,41.80
2018-07-31T09:18:49.647Z,41.00
2018-07-31T09:23:57.176Z,39.20
2018-07-31T09:26:24.063Z,39.70
2018-07-31T09:28:51.029Z,40.10
2018-07-31T09:31:17.916Z,40.40
2018-07-31T09:33:44.848Z,40.50
2018-07-31T09:36:11.809Z,40.60
2018-07-31T09:38:38.756Z,41.20
2018-07-31T09:41:13.108Z,41.70
2018-07-31T09:43:40.475Z,41.60
2018-07-31T09:46:11.572Z,41.50
2018-07-31T09:48:40.262Z,41.30
2018-07-31T09:51:13.832Z,41.50
2018-07-31T09:53:53.177Z,41.80
2018-07-31T09:56:30.692Z,41.80
2018-07-31T09:59:09.245Z,41.90
2018-07-31T10:01:43.244Z,42.10
2018-07-31T10:04:22.185Z,41.70
2018-07-31T10:07:02.888Z,41.60
2018-07-31T10:09:39.492Z,42.00
2018-07-31T10:12:07.880Z,42.40
2018-07-31T10:14:35.822Z,42.20
2018-07-31T10:17:15.776Z,42.20
2018-07-31T10:19:53.296Z,42.10
2018-07-31T10:22:33.932Z,41.90
2018-07-31T10:25:10.927Z,41.50
2018-07-31T10:27:49.198Z,41.30
2018-07-31T10:30:30.555Z,41.10
2018-07-31T10:33:04.930Z,41.00
2018-07-31T10:35:43.877Z,41.30
2018-07-31T10:38:16.488Z,41.20
2018-07-31T10:40:44.328Z,41.40
2018-07-31T10:43:11.252Z,41.00
2018-07-31T10:45:45.876Z,41.00
2018-07-31T10:48:13.067Z,41.10
2018-07-31T10:50:41.052Z,41.30
2018-07-31T10:53:07.991Z,41.40
2018-07-31T10:55:36.081Z,41.70
2018-07-31T10:58:03.035Z,41.30
2018-07-31T11:00:35.503Z,41.40
2018-07-31T11:03:08.764Z,41.90
2018-07-31T11:05:45.790Z,41.70
2018-07-31T11:08:25.999Z,41.70
2018-07-31T11:11:02.201Z,41.60
2018-07-31T11:16:22.671Z,41.60
2018-07-31T11:19:03.872Z,41.40
2018-07-31T11:21:40.794Z,41.40
2018-07-31T11:24:20.808Z,41.70
2018-07-31T11:27:02.647Z,41.70
2018-07-31T11:29:43.562Z,41.70
2018-07-31T11:32:24.890Z,41.50
2018-07-31T11:35:04.377Z,41.60
2018-07-31T11:37:43.522Z,41.70
2018-07-31T11:40:11.091Z,41.40
2018-07-31T11:42:39.879Z,40.70
2018-07-31T11:45:19.054Z,40.70
2018-07-31T11:47:48.810Z,41.20
2018-07-31T11:50:21.184Z,41.00
2018-07-31T11:53:00.730Z,41.00
2018-07-31T11:55:41.845Z,41.00
2018-07-31T11:58:22.522Z,40.80
2018-07-31T12:00:59.461Z,41.20
2018-07-31T12:03:37.268Z,41.10
2018-07-31T12:06:13.628Z,41.10
2018-07-31T12:08:48.529Z,41.00
2018-07-31T12:11:25.772Z,40.70
2018-07-31T12:14:00.751Z,40.80
2018-07-31T12:16:35.651Z,41.00
2018-07-31T12:19:11.536Z,41.20
2018-07-31T12:21:39.439Z,41.00
2018-07-31T12:24:07.065Z,40.80
2018-07-31T12:26:37.604Z,40.80
2018-07-31T12:29:04.541Z,40.80
2018-07-31T12:31:33.371Z,40.90
2018-07-31T12:34:01.616Z,40.90
2018-07-31T12:36:28.896Z,40.70
2018-07-31T12:38:56.520Z,40.60
2018-07-31T12:41:23.499Z,40.60
2018-07-31T12:43:51.159Z,40.80
2018-07-31T12:46:18.831Z,40.50
2018-07-31T12:48:46.433Z,40.50
2018-07-31T12:51:13.402Z,40.50
2018-07-31T12:53:44.406Z,40.20
2018-07-31T12:56:13.145Z,40.30
2018-07-31T12:58:43.924Z,40.50
2018-07-31T13:01:13.692Z,40.70
2018-07-31T13:03:41.407Z,40.90
2018-07-31T13:06:09.333Z,40.80
2018-07-31T13:08:37.064Z,40.60
2018-07-31T13:11:04.054Z,40.50
2018-07-31T13:13:31.675Z,40.80
2018-07-31T13:16:03.827Z,40.80
2018-07-31T13:18:30.676Z,40.80
2018-07-31T13:20:57.606Z,40.80
2018-07-31T13:23:24.461Z,40.70
2018-07-31T13:25:58.348Z,40.70
2018-07-31T13:28:25.244Z,40.80
2018-07-31T13:30:52.252Z,40.20
2018-07-31T13:33:19.136Z,39.80
2018-07-31T13:35:46.076Z,39.60
2018-07-31T13:38:13.404Z,39.80
2018-07-31T13:40:40.392Z,39.80
2018-07-31T13:43:07.321Z,39.80
2018-07-31T13:45:34.331Z,39.80
2018-07-31T13:48:01.193Z,39.80
2018-07-31T13:50:28.142Z,39.50
2018-07-31T13:52:55.036Z,39.10
2018-07-31T13:55:22.722Z,39.00
2018-07-31T13:57:49.604Z,39.00
2018-07-31T14:00:17.241Z,39.00
2018-07-31T14:02:45.081Z,39.00
2018-07-31T14:05:16.543Z,39.20
2018-07-31T14:07:43.757Z,39.20
2018-07-31T14:10:10.646Z,39.50
2018-07-31T14:12:37.619Z,39.70
2018-07-31T14:15:05.159Z,39.80
2018-07-31T14:17:32.868Z,39.50
2018-07-31T14:19:59.721Z,39.50
2018-07-31T14:22:31.694Z,39.00
2018-07-31T14:25:04.771Z,39.00
2018-07-31T14:27:40.674Z,39.00
2018-07-31T14:30:15.150Z,38.90
2018-07-31T14:32:42.193Z,39.10
2018-07-31T14:35:19.500Z,39.10
2018-07-31T14:38:01.167Z,39.10
2018-07-31T14:40:42.184Z,39.50
2018-07-31T14:45:55.633Z,39.70
2018-07-31T14:48:25.308Z,39.90
2018-07-31T14:50:55.342Z,39.80
2018-07-31T14:53:23.078Z,39.40
2018-07-31T14:55:49.988Z,38.90
2018-07-31T14:58:18.188Z,38.40
2018-07-31T15:00:52.283Z,38.00
2018-07-31T15:03:32.817Z,37.90
2018-07-31T15:06:17.555Z,37.90
2018-07-31T15:08:54.551Z,37.90
2018-07-31T15:11:36.867Z,38.00
2018-07-31T15:14:17.893Z,38.00
2018-07-31T15:17:00.395Z,38.30
2018-07-31T15:19:28.253Z,38.30
2018-07-31T15:21:56.106Z,38.30
2018-07-31T15:24:29.661Z,38.50
2018-07-31T15:32:41.958Z,37.80
2018-07-31T15:35:22.113Z,37.60
2018-07-31T15:37:50.097Z,37.30
2018-07-31T15:40:16.976Z,37.10
2018-07-31T15:42:44.716Z,36.90
2018-07-31T15:45:12.198Z,36.80
2018-07-31T15:47:44.605Z,36.80
2018-07-31T15:53:02.759Z,36.40
2018-07-31T15:55:35.467Z,36.30
2018-07-31T15:58:08.042Z,36.00
2018-07-31T16:03:33.907Z,35.10
2018-07-31T16:06:11.854Z,34.60
2018-07-31T16:11:37.583Z,33.70
2018-07-31T16:14:09.869Z,32.70
2018-07-31T16:16:38.894Z,32.60
2018-07-31T16:21:51.375Z,32.30
2018-07-31T16:24:29.601Z,32.20
2018-07-31T16:27:12.218Z,32.40
2018-07-31T16:29:51.974Z,32.70
2018-07-31T16:35:14.277Z,33.70
2018-07-31T16:40:40.380Z,34.40
2018-07-31T16:45:53.602Z,34.80
2018-07-31T16:48:33.623Z,34.70
2018-07-31T16:51:10.648Z,34.80
2018-07-31T16:56:29.699Z,34.90
2018-07-31T16:58:58.009Z,34.90
2018-07-31T17:04:17.916Z,35.00
2018-07-31T17:09:33.918Z,34.90
2018-07-31T17:12:21.498Z,35.00
2018-07-31T17:14:54.729Z,35.00
2018-07-31T17:17:32.170Z,35.10
2018-07-31T17:22:50.192Z,35.10
2018-07-31T17:25:27.978Z,35.10
2018-07-31T17:27:56.425Z,35.20
2018-07-31T17:30:23.321Z,35.10
2018-07-31T17:32:50.317Z,35.20
2018-07-31T17:35:17.230Z,35.10
2018-07-31T17:37:44.149Z,35.20
2018-07-31T17:40:11.068Z,35.20
2018-07-31T17:42:38.092Z,35.10
2018-07-31T17:45:05.825Z,35.10
2018-07-31T17:47:37.127Z,35.10
2018-07-31T17:50:15.817Z,35.00
2018-07-31T17:52:56.307Z,34.90
2018-07-31T17:55:36.443Z,34.90
2018-07-31T17:58:18.536Z,34.80
2018-07-31T18:01:00.380Z,34.70
2018-07-31T18:08:54.233Z,34.20
2018-07-31T18:11:21.183Z,34.20
2018-07-31T18:13:48.158Z,34.10
2018-07-31T18:16:15.065Z,34.10
2018-07-31T18:18:42.017Z,34.10
2018-07-31T18:21:08.955Z,34.00
2018-07-31T18:23:35.968Z,33.80
2018-07-31T18:26:02.849Z,33.70
2018-07-31T18:28:30.626Z,33.60
2018-07-31T18:30:59.480Z,33.40
2018-07-31T18:33:29.640Z,33.30
2018-07-31T18:35:56.859Z,33.10
2018-07-31T18:38:29.308Z,33.00
2018-07-31T18:40:56.334Z,32.80
2018-07-31T18:43:23.402Z,32.60
2018-07-31T18:45:51.449Z,32.40
2018-07-31T18:48:18.329Z,32.30
2018-07-31T18:50:46.060Z,32.20
2018-07-31T18:53:20.856Z,32.10
2018-07-31T18:55:48.357Z,32.00
2018-07-31T18:58:15.234Z,31.80
2018-07-31T19:00:42.177Z,31.60
2018-07-31T19:03:09.052Z,31.40
2018-07-31T19:05:36.043Z,31.30
2018-07-31T19:08:02.922Z,31.20
2018-07-31T19:10:29.924Z,31.00
2018-07-31T19:12:56.805Z,30.90
2018-07-31T19:15:23.777Z,30.80
2018-07-31T19:17:50.656Z,30.70
2018-07-31T19:20:18.496Z,30.60
2018-07-31T19:23:18.137Z,30.40
2018-07-31T19:32:23.444Z,29.90
2018-07-31T19:37:53.565Z,29.40
2018-07-31T19:40:51.745Z,29.40
2018-07-31T19:43:19.812Z,29.40
2018-07-31T19:45:47.378Z,29.30
2018-07-31T19:48:22.215Z,29.40
2018-07-31T19:50:50.639Z,29.30
2018-07-31T19:53:29.631Z,29.30
2018-07-31T19:55:59.179Z,29.20
2018-07-31T19:58:38.121Z,29.20
2018-07-31T20:01:19.421Z,29.20
2018-07-31T20:06:48.816Z,29.30
2018-07-31T20:09:32.373Z,29.30
2018-07-31T20:12:15.260Z,29.30
2018-07-31T20:15:00.821Z,29.30
2018-07-31T20:17:42.304Z,29.30
2018-07-31T20:20:25.052Z,29.10
2018-07-31T20:23:08.045Z,29.10
2018-07-31T20:25:51.498Z,29.20
2018-07-31T20:28:37.195Z,29.40
2018-07-31T20:31:18.959Z,29.30
2018-07-31T20:34:00.994Z,29.40
2018-07-31T20:39:28.965Z,29.60
2018-07-31T20:42:14.175Z,29.60
2018-07-31T20:44:58.010Z,29.70
2018-07-31T20:47:40.420Z,29.60
2018-07-31T20:50:22.285Z,29.60
2018-07-31T20:53:02.412Z,29.60
2018-07-31T20:55:30.202Z,29.60
2018-07-31T20:57:57.212Z,29.50
2018-07-31T21:00:24.125Z,29.50
2018-07-31T21:03:02.290Z,29.50
2018-07-31T21:05:43.234Z,29.20
2018-07-31T21:08:16.691Z,29.20
2018-07-31T21:10:57.872Z,29.10
2018-07-31T21:13:38.209Z,29.00
2018-07-31T21:18:50.569Z,28.70
2018-07-31T21:21:17.501Z,28.70
2018-07-31T21:23:57.955Z,28.70
2018-07-31T21:26:41.635Z,28.70
2018-07-31T21:29:09.396Z,28.70
2018-07-31T21:31:36.328Z,28.70
2018-07-31T21:34:08.746Z,28.70
2018-07-31T21:36:36.405Z,28.60
2018-07-31T21:39:07.493Z,28.60
2018-07-31T21:41:34.518Z,28.60
2018-07-31T21:44:05.636Z,28.50
2018-07-31T21:46:32.594Z,28.50
2018-07-31T21:49:12.502Z,28.50
2018-07-31T21:51:41.185Z,28.50
2018-07-31T21:54:08.044Z,28.40
2018-07-31T21:56:35.053Z,28.30
2018-07-31T21:59:02.017Z,28.20
2018-07-31T22:01:28.948Z,28.20
2018-07-31T22:04:09.893Z,28.10
2018-07-31T22:06:37.597Z,28.10
2018-07-31T22:09:16.752Z,28.10
2018-07-31T22:11:43.716Z,28.00
2018-07-31T22:14:19.536Z,28.00
2018-07-31T22:16:46.456Z,27.90
2018-07-31T22:19:13.309Z,27.80
2018-07-31T22:21:45.032Z,27.80
2018-07-31T22:24:12.645Z,27.70
2018-07-31T22:26:39.572Z,27.70
2018-07-31T22:29:13.275Z,27.70
2018-07-31T22:31:41.119Z,27.80
2018-07-31T22:34:08.720Z,27.80
2018-07-31T22:36:35.748Z,27.80
2018-07-31T22:39:02.781Z,27.80
2018-07-31T22:41:29.891Z,27.80
2018-07-31T22:43:56.800Z,27.90
2018-07-31T22:46:23.751Z,27.90
2018-07-31T22:48:50.610Z,27.80
2018-07-31T22:51:17.581Z,27.80
2018-07-31T22:53:44.445Z,27.90
2018-07-31T22:56:11.375Z,27.80
2018-07-31T22:58:41.997Z,27.70
2018-07-31T23:01:08.890Z,27.70
2018-07-31T23:03:35.856Z,27.70
2018-07-31T23:06:02.785Z,27.70
2018-07-31T23:08:29.814Z,27.60
2018-07-31T23:10:56.725Z,27.60
2018-07-31T23:13:23.669Z,27.50
2018-07-31T23:15:50.540Z,27.50
2018-07-31T23:18:17.465Z,27.40
2018-07-31T23:20:44.377Z,27.40
2018-07-31T23:23:11.305Z,27.40
2018-07-31T23:25:38.210Z,27.30
2018-07-31T23:28:05.161Z,27.30
2018-07-31T23:30:32.050Z,27.30
2018-07-31T23:32:58.996Z,27.30
2018-07-31T23:35:25.881Z,27.20
2018-07-31T23:37:52.833Z,27.10
2018-07-31T23:40:19.724Z,27.20
2018-07-31T23:42:46.720Z,27.10
2018-07-31T23:45:13.584Z,27.20
2018-07-31T23:47:41.260Z,27.10
2018-07-31T23:50:08.148Z,27.00
2018-07-31T23:52:35.961Z,27.00
2018-07-31T23:55:02.892Z,27.00
2018-07-31T23:57:30.564Z,27.00
2018-07-31T23:59:58.166Z,27.10
